Time;durP1;ratioP1;P1;durP2;ratioP2;P2;SDS_P1;SDS_P2;PMS_P1;PMS_P2;Temp;Humidity;BMP_temperature;BMP_pressure;BME280_temperature;BME280_humidity;BME280_pressure;Samples;Min_cycle;Max_cycle;Signal;HPM_P1;HPM_P2
2023/04/10 00:01:34;;;;;;;8.47;6.40;;;7.90;99.90;;;;;;5033997;28;20531;-50
2023/04/10 00:04:04;;;;;;;11.97;7.07;;;7.80;99.90;;;;;;5033784;28;20266;-48
2023/04/10 00:06:30;;;;;;;11.07;6.43;;;7.80;99.90;;;;;;5034289;28;20193;-51
2023/04/10 00:08:56;;;;;;;10.03;6.53;;;7.80;99.90;;;;;;5033893;28;20192;-49
2023/04/10 00:11:23;;;;;;;12.43;7.00;;;7.70;99.90;;;;;;5033647;28;20220;-50
2023/04/10 00:13:48;;;;;;;8.27;6.47;;;7.70;99.90;;;;;;5015971;28;20182;-48
2023/04/10 00:16:14;;;;;;;9.10;6.20;;;7.70;99.90;;;;;;5033588;28;20200;-48
2023/04/10 00:18:39;;;;;;;10.73;6.80;;;7.70;99.90;;;;;;5034081;28;20256;-49
2023/04/10 00:21:05;;;;;;;10.30;7.30;;;7.70;99.90;;;;;;5034781;28;20247;-45
2023/04/10 00:23:33;;;;;;;8.70;7.00;;;7.70;99.90;;;;;;5033783;28;20239;-46
2023/04/10 00:25:59;;;;;;;8.03;5.93;;;7.60;99.90;;;;;;5033740;28;20197;-45
2023/04/10 00:28:25;;;;;;;9.63;6.73;;;7.60;99.90;;;;;;5033616;28;20185;-47
2023/04/10 00:30:50;;;;;;;7.70;6.43;;;7.60;99.90;;;;;;5033489;28;20578;-44
2023/04/10 00:33:16;;;;;;;10.73;7.53;;;7.60;99.90;;;;;;5033345;28;20215;-44
2023/04/10 00:35:41;;;;;;;9.83;6.20;;;7.50;99.90;;;;;;5033583;28;20208;-45
2023/04/10 00:38:07;;;;;;;10.20;7.70;;;7.50;99.90;;;;;;5033393;28;20209;-45
2023/04/10 00:40:32;;;;;;;9.17;6.63;;;7.50;99.90;;;;;;5033463;28;20179;-45
2023/04/10 00:42:58;;;;;;;8.47;6.53;;;7.50;99.90;;;;;;5034060;28;20196;-46
2023/04/10 00:45:24;;;;;;;8.97;6.70;;;7.50;99.90;;;;;;5034329;28;20184;-45
2023/04/10 00:47:50;;;;;;;10.70;7.20;;;7.50;99.90;;;;;;5034800;28;20188;-45
2023/04/10 00:50:16;;;;;;;9.30;6.77;;;7.40;99.90;;;;;;5034846;28;20687;-46
2023/04/10 00:52:41;;;;;;;9.37;6.83;;;7.40;99.90;;;;;;5034374;28;20203;-44
2023/04/10 00:55:08;;;;;;;9.03;7.00;;;7.40;99.90;;;;;;5033533;28;20673;-50
2023/04/10 00:57:34;;;;;;;8.23;6.53;;;7.40;99.90;;;;;;5034028;28;20173;-50
2023/04/10 01:00:00;;;;;;;10.23;7.10;;;7.40;99.90;;;;;;5033427;28;20245;-50
2023/04/10 01:02:25;;;;;;;10.67;7.13;;;7.40;99.90;;;;;;5033235;28;20189;-49
2023/04/10 01:04:51;;;;;;;18.70;7.63;;;7.30;99.90;;;;;;5033174;28;20674;-50
2023/04/10 01:07:31;;;;;;;9.60;6.93;;;7.30;99.90;;;;;;5033213;28;20177;-50
2023/04/10 01:10:11;;;;;;;8.27;6.47;;;7.30;99.90;;;;;;5033631;28;20219;-51
2023/04/10 01:12:51;;;;;;;10.03;6.53;;;7.30;99.90;;;;;;5033381;28;20210;-49
2023/04/10 01:15:24;;;;;;;10.97;6.40;;;7.30;99.90;;;;;;5033096;28;20200;-51
2023/04/10 01:18:05;;;;;;;9.87;6.90;;;7.30;99.90;;;;;;5033578;28;20202;-50
2023/04/10 01:20:38;;;;;;;10.37;6.53;;;7.30;99.90;;;;;;5033328;28;20165;-49
2023/04/10 01:23:49;;;;;;;11.87;6.67;;;7.30;99.90;;;;;;5034146;28;20201;-49
2023/04/10 01:26:18;;;;;;;7.70;6.13;;;7.30;99.90;;;;;;5032895;28;20651;-51
2023/04/10 01:28:51;;;;;;;10.10;6.80;;;7.20;99.90;;;;;;5033188;28;20181;-51
2023/04/10 01:31:28;;;;;;;10.70;7.03;;;7.20;99.90;;;;;;5033098;28;20193;-49
2023/04/10 01:34:00;;;;;;;8.93;6.53;;;7.20;99.90;;;;;;5033134;28;20534;-52
2023/04/10 01:36:32;;;;;;;9.37;6.40;;;7.20;99.90;;;;;;5032735;28;20232;-51
2023/04/10 01:39:00;;;;;;;10.10;6.90;;;7.20;99.90;;;;;;5033198;28;20170;-50
2023/04/10 01:41:26;;;;;;;10.80;6.70;;;7.10;99.90;;;;;;5032896;28;20201;-50
2023/04/10 01:43:53;;;;;;;10.97;6.80;;;7.20;99.90;;;;;;5035283;28;20191;-50
2023/04/10 01:46:21;;;;;;;9.03;6.80;;;7.10;99.90;;;;;;5036370;28;20563;-50
2023/04/10 01:48:48;;;;;;;9.70;6.80;;;7.10;99.90;;;;;;5036706;28;20648;-52
2023/04/10 01:51:16;;;;;;;9.80;6.83;;;7.20;99.90;;;;;;5036176;28;20250;-49
2023/04/10 01:53:44;;;;;;;8.43;6.60;;;7.10;99.90;;;;;;5036245;28;20173;-51
2023/04/10 01:56:12;;;;;;;8.33;6.20;;;7.10;99.90;;;;;;5036308;28;20215;-51
2023/04/10 01:58:37;;;;;;;10.47;6.70;;;7.10;99.90;;;;;;5036189;28;20199;-50
2023/04/10 02:01:03;;;;;;;13.30;6.50;;;7.10;99.90;;;;;;5035990;28;20575;-51
2023/04/10 02:03:29;;;;;;;9.50;6.83;;;7.10;99.90;;;;;;5036320;28;20177;-50
2023/04/10 02:06:10;;;;;;;9.60;7.23;;;7.00;99.90;;;;;;5036410;28;20196;-50
2023/04/10 02:08:45;;;;;;;9.47;6.17;;;7.00;99.90;;;;;;5036056;28;20627;-52
2023/04/10 02:11:37;;;;;;;14.83;7.20;;;7.00;99.90;;;;;;5035915;28;20232;-52
2023/04/10 02:14:06;;;;;;;9.80;5.93;;;7.00;99.90;;;;;;5035922;28;20165;-50
2023/04/10 02:16:34;;;;;;;9.10;6.43;;;7.00;99.90;;;;;;5035685;28;20211;-50
2023/04/10 02:19:01;;;;;;;9.07;6.83;;;6.90;99.90;;;;;;5035802;28;20219;-49
2023/04/10 02:21:27;;;;;;;10.87;6.87;;;6.90;99.90;;;;;;5036251;28;20201;-43
2023/04/10 02:23:56;;;;;;;8.37;5.93;;;6.90;99.90;;;;;;5036241;28;20185;-44
2023/04/10 02:26:21;;;;;;;10.40;6.70;;;6.90;99.90;;;;;;5035733;28;20184;-44
2023/04/10 02:28:47;;;;;;;14.13;6.90;;;6.80;99.90;;;;;;5035888;28;20199;-44
2023/04/10 02:31:12;;;;;;;10.30;6.47;;;6.80;99.90;;;;;;5035330;28;20255;-45
2023/04/10 02:33:38;;;;;;;11.10;7.37;;;6.80;99.90;;;;;;5035328;28;20189;-44
2023/04/10 02:36:04;;;;;;;14.00;7.07;;;6.70;99.90;;;;;;5035302;28;20200;-42
2023/04/10 02:38:30;;;;;;;11.87;7.07;;;6.70;99.90;;;;;;5035507;28;20182;-45
2023/04/10 02:40:55;;;;;;;11.17;6.80;;;6.70;99.90;;;;;;5035451;28;20181;-45
2023/04/10 02:43:21;;;;;;;9.90;6.17;;;6.60;99.90;;;;;;5035238;28;20661;-46
2023/04/10 02:45:46;;;;;;;9.50;6.23;;;6.60;99.90;;;;;;5035444;28;20626;-44
2023/04/10 02:48:12;;;;;;;8.80;6.50;;;6.60;99.90;;;;;;5035174;28;20170;-44
2023/04/10 02:50:38;;;;;;;9.17;6.73;;;6.60;99.90;;;;;;5035098;28;20177;-44
2023/04/10 02:53:03;;;;;;;9.80;6.27;;;6.50;99.90;;;;;;5034894;28;20196;-43
2023/04/10 02:55:29;;;;;;;10.10;7.07;;;6.50;99.90;;;;;;5035202;28;20208;-41
2023/04/10 02:57:54;;;;;;;13.27;7.23;;;6.50;99.90;;;;;;5035270;28;20183;-45
2023/04/10 03:00:20;;;;;;;9.47;6.80;;;6.50;99.90;;;;;;5035241;28;20181;-44
2023/04/10 03:02:45;;;;;;;10.07;6.47;;;6.40;99.90;;;;;;5034861;28;20197;-45
2023/04/10 03:05:11;;;;;;;8.93;6.70;;;6.40;99.90;;;;;;5034880;28;20267;-41
2023/04/10 03:07:37;;;;;;;14.00;6.60;;;6.40;99.90;;;;;;5034826;28;20180;-43
2023/04/10 03:10:02;;;;;;;10.77;6.43;;;6.40;99.90;;;;;;5035130;28;20177;-44
2023/04/10 03:12:28;;;;;;;11.03;6.73;;;6.40;99.90;;;;;;5034599;28;20219;-42
2023/04/10 03:14:53;;;;;;;9.17;6.33;;;6.30;99.90;;;;;;5034806;28;20267;-44
2023/04/10 03:17:19;;;;;;;10.43;6.30;;;6.30;99.90;;;;;;5034640;28;20533;-43
2023/04/10 03:19:45;;;;;;;24.57;7.03;;;6.30;99.90;;;;;;5034830;28;20515;-44
2023/04/10 03:22:10;;;;;;;9.13;6.33;;;6.30;99.90;;;;;;5034908;28;20197;-43
2023/04/10 03:24:39;;;;;;;10.23;6.83;;;6.30;99.90;;;;;;5034727;28;20180;-45
2023/04/10 03:27:05;;;;;;;9.50;6.87;;;6.30;99.90;;;;;;5034580;28;20203;-42
2023/04/10 03:29:31;;;;;;;10.47;6.77;;;6.30;99.90;;;;;;5034316;28;20177;-42
2023/04/10 03:31:56;;;;;;;8.10;6.50;;;6.30;99.90;;;;;;5034498;28;20201;-43
2023/04/10 03:34:22;;;;;;;11.83;6.63;;;6.30;99.90;;;;;;5034576;28;20177;-45
2023/04/10 03:36:47;;;;;;;15.10;6.30;;;6.30;99.90;;;;;;5034313;28;20192;-43
2023/04/10 03:39:13;;;;;;;11.20;5.93;;;6.30;99.90;;;;;;5034426;28;20188;-46
2023/04/10 03:41:39;;;;;;;9.10;6.13;;;6.30;99.90;;;;;;5034034;28;20198;-43
2023/04/10 03:44:04;;;;;;;11.87;6.70;;;6.20;99.90;;;;;;5034403;28;20181;-43
2023/04/10 03:46:30;;;;;;;10.00;6.67;;;6.20;99.90;;;;;;5034058;28;20177;-43
2023/04/10 03:48:55;;;;;;;10.07;6.37;;;6.20;99.90;;;;;;5034296;28;20184;-46
2023/04/10 03:51:23;;;;;;;9.17;6.17;;;6.20;99.90;;;;;;5033865;28;20204;-43
2023/04/10 03:53:49;;;;;;;11.17;7.67;;;6.20;99.90;;;;;;5034013;28;20684;-45
2023/04/10 03:56:15;;;;;;;11.67;6.33;;;6.20;99.90;;;;;;5034069;28;20209;-46
2023/04/10 03:58:40;;;;;;;10.17;6.63;;;6.10;99.90;;;;;;5033832;28;20200;-44
2023/04/10 04:01:06;;;;;;;12.30;7.20;;;6.10;99.90;;;;;;5034290;28;20239;-46
2023/04/10 04:03:32;;;;;;;9.83;6.47;;;6.20;99.90;;;;;;5034421;28;20204;-45
2023/04/10 04:05:57;;;;;;;10.33;6.57;;;6.10;99.90;;;;;;5033834;28;20269;-45
2023/04/10 04:08:23;;;;;;;11.97;6.63;;;6.10;99.90;;;;;;5033721;28;20783;-46
2023/04/10 04:10:48;;;;;;;9.67;6.53;;;6.10;99.90;;;;;;5033420;28;20193;-45
2023/04/10 04:13:14;;;;;;;14.90;5.90;;;6.10;99.90;;;;;;5033639;28;20181;-43
2023/04/10 04:15:41;;;;;;;9.30;6.90;;;6.00;99.90;;;;;;5033706;28;20207;-44
2023/04/10 04:18:06;;;;;;;10.67;6.07;;;6.00;99.90;;;;;;5033766;28;20184;-46
2023/04/10 04:20:32;;;;;;;11.67;7.37;;;6.00;99.90;;;;;;5033509;28;20183;-46
2023/04/10 04:22:57;;;;;;;11.50;6.40;;;6.00;99.90;;;;;;5034905;28;20196;-45
2023/04/10 04:25:23;;;;;;;10.97;6.43;;;6.00;99.90;;;;;;5033955;28;20173;-43
2023/04/10 04:27:49;;;;;;;8.83;6.30;;;6.00;99.90;;;;;;5033685;28;20598;-45
2023/04/10 04:30:15;;;;;;;11.20;7.17;;;6.00;99.90;;;;;;5033411;28;20191;-45
2023/04/10 04:32:40;;;;;;;11.23;6.90;;;6.00;99.90;;;;;;5033323;28;20201;-46
2023/04/10 04:35:06;;;;;;;14.27;6.20;;;5.90;99.90;;;;;;5033310;28;20173;-45
2023/04/10 04:37:32;;;;;;;11.07;6.37;;;5.90;99.90;;;;;;5033521;28;20331;-43
2023/04/10 04:39:57;;;;;;;10.07;6.63;;;5.90;99.90;;;;;;5033317;28;20649;-44
2023/04/10 04:42:23;;;;;;;8.27;6.17;;;5.90;99.90;;;;;;5033372;28;20254;-45
2023/04/10 04:44:49;;;;;;;10.53;6.03;;;5.80;99.90;;;;;;5033737;28;20226;-43
2023/04/10 04:47:15;;;;;;;10.00;6.53;;;5.80;99.90;;;;;;5033581;28;20263;-40
2023/04/10 04:49:41;;;;;;;10.37;6.03;;;5.80;99.90;;;;;;5033459;28;20184;-45
2023/04/10 04:52:08;;;;;;;9.40;6.23;;;5.80;99.90;;;;;;5033054;28;20201;-43
2023/04/10 04:54:33;;;;;;;8.77;5.27;;;5.80;99.90;;;;;;5033227;28;20183;-43
2023/04/10 04:57:00;;;;;;;8.13;5.73;;;5.80;99.90;;;;;;5033140;28;20205;-43
2023/04/10 04:59:26;;;;;;;9.37;6.63;;;5.80;99.90;;;;;;5015421;28;20200;-43
2023/04/10 05:01:51;;;;;;;8.70;5.27;;;5.80;99.90;;;;;;5033134;28;20289;-47
2023/04/10 05:04:17;;;;;;;10.07;6.17;;;5.80;99.90;;;;;;5033361;28;20184;-42
2023/04/10 05:06:42;;;;;;;10.10;6.33;;;5.80;99.90;;;;;;5033399;28;20640;-45
2023/04/10 05:09:08;;;;;;;9.83;6.27;;;5.80;99.90;;;;;;5033337;28;20261;-44
2023/04/10 05:11:33;;;;;;;8.83;6.40;;;5.80;99.90;;;;;;5047185;23;20235;-46
2023/04/10 05:13:59;;;;;;;9.43;6.40;;;5.80;99.90;;;;;;5034646;28;20192;-44
2023/04/10 05:16:25;;;;;;;8.97;6.13;;;5.80;99.90;;;;;;5034208;28;20236;-47
2023/04/10 05:18:50;;;;;;;9.63;6.37;;;5.80;99.90;;;;;;5036019;28;20180;-45
2023/04/10 05:21:16;;;;;;;9.27;6.13;;;5.80;99.90;;;;;;5036777;28;20203;-45
2023/04/10 05:23:41;;;;;;;8.73;6.00;;;5.90;99.90;;;;;;5036866;28;20704;-45
2023/04/10 05:26:07;;;;;;;10.03;6.30;;;5.90;99.90;;;;;;5037061;28;20270;-46
2023/04/10 05:28:32;;;;;;;7.37;5.50;;;5.90;99.90;;;;;;5037292;28;20173;-45
2023/04/10 05:30:58;;;;;;;14.97;6.50;;;6.00;99.90;;;;;;5036715;28;20567;-46
2023/04/10 05:33:23;;;;;;;7.97;5.23;;;6.10;99.90;;;;;;5036873;28;20228;-44
2023/04/10 05:35:49;;;;;;;10.43;7.03;;;6.10;99.90;;;;;;5036521;28;20212;-44
2023/04/10 05:38:14;;;;;;;13.10;7.03;;;6.20;99.90;;;;;;5036892;28;20187;-48
2023/04/10 05:40:44;;;;;;;8.93;6.37;;;6.20;99.90;;;;;;5036638;28;20546;-45
2023/04/10 05:43:10;;;;;;;10.77;6.60;;;6.30;99.90;;;;;;5036389;28;20695;-45
2023/04/10 05:45:35;;;;;;;9.10;6.30;;;6.30;99.90;;;;;;5039922;28;20175;-45
2023/04/10 05:48:01;;;;;;;9.43;6.47;;;6.30;99.90;;;;;;5039613;28;20608;-44
2023/04/10 05:50:26;;;;;;;11.70;7.13;;;6.40;99.90;;;;;;5036561;28;20519;-45
2023/04/10 05:52:53;;;;;;;12.23;7.27;;;6.40;99.90;;;;;;5036186;28;20196;-47
2023/04/10 05:55:19;;;;;;;10.87;6.77;;;6.50;99.90;;;;;;5036195;28;20214;-45
2023/04/10 05:57:45;;;;;;;10.63;7.37;;;6.50;99.90;;;;;;5036240;28;20589;-44
2023/04/10 06:00:11;;;;;;;9.73;6.90;;;6.60;99.90;;;;;;5018282;28;20179;-45
2023/04/10 06:02:37;;;;;;;10.17;6.50;;;6.60;99.90;;;;;;5036278;28;20254;-46
2023/04/10 06:05:02;;;;;;;10.03;6.63;;;6.60;99.90;;;;;;5036287;28;20213;-45
2023/04/10 06:07:28;;;;;;;8.43;5.97;;;6.70;99.90;;;;;;5036461;28;20230;-45
2023/04/10 06:09:53;;;;;;;9.33;6.50;;;6.80;99.90;;;;;;5036119;28;20203;-47
2023/04/10 06:12:19;;;;;;;11.53;5.40;;;6.80;99.90;;;;;;5035676;28;20227;-45
2023/04/10 06:14:45;;;;;;;11.00;6.17;;;6.90;99.90;;;;;;5035736;28;20506;-44
2023/04/10 06:17:11;;;;;;;7.83;4.90;;;7.10;99.90;;;;;;5036155;28;20206;-45
2023/04/10 06:19:36;;;;;;;10.60;5.20;;;7.20;99.90;;;;;;5035756;28;20175;-45
2023/04/10 06:22:02;;;;;;;13.67;5.87;;;7.30;99.90;;;;;;5035618;28;20257;-44
2023/04/10 06:24:27;;;;;;;6.97;4.67;;;7.50;99.90;;;;;;5035631;28;20318;-45
2023/04/10 06:26:53;;;;;;;12.13;6.53;;;7.60;99.90;;;;;;5035935;28;20185;-47
2023/04/10 06:29:18;;;;;;;9.53;5.90;;;7.80;99.90;;;;;;5035192;28;20191;-46
2023/04/10 06:31:44;;;;;;;8.07;5.40;;;7.90;99.90;;;;;;5035692;28;20683;-47
2023/04/10 06:34:10;;;;;;;7.53;4.70;;;8.00;99.90;;;;;;5035559;28;20188;-46
2023/04/10 06:36:35;;;;;;;11.30;5.67;;;8.10;99.90;;;;;;5035576;28;20243;-46
2023/04/10 06:39:01;;;;;;;9.90;6.00;;;8.30;99.90;;;;;;5035359;28;20222;-47
2023/04/10 06:41:27;;;;;;;12.30;5.93;;;8.40;99.90;;;;;;5035484;28;20229;-47
2023/04/10 06:43:52;;;;;;;10.37;6.83;;;8.50;99.90;;;;;;5017756;28;20584;-47
2023/04/10 06:46:18;;;;;;;10.43;6.80;;;8.60;99.90;;;;;;5035688;28;20580;-46
2023/04/10 06:48:44;;;;;;;8.40;5.93;;;8.70;99.90;;;;;;5035328;28;20181;-46
2023/04/10 06:51:10;;;;;;;11.33;5.93;;;8.80;99.90;;;;;;5035134;28;20223;-48
2023/04/10 06:53:35;;;;;;;12.27;7.37;;;8.80;99.90;;;;;;5035652;28;20176;-46
2023/04/10 06:56:01;;;;;;;10.40;6.97;;;8.90;99.90;;;;;;5034935;28;20212;-47
2023/04/10 06:58:26;;;;;;;7.77;5.73;;;8.90;99.90;;;;;;5034988;28;20177;-46
2023/04/10 07:00:53;;;;;;;6.57;4.37;;;9.00;99.90;;;;;;5035089;28;20208;-47
2023/04/10 07:03:18;;;;;;;9.20;6.40;;;9.00;99.90;;;;;;5035148;28;20198;-47
2023/04/10 07:05:44;;;;;;;8.53;5.63;;;9.00;99.90;;;;;;5034941;28;20227;-48
2023/04/10 07:08:09;;;;;;;10.33;5.80;;;9.00;99.90;;;;;;5035049;28;20660;-45
2023/04/10 07:10:35;;;;;;;9.10;6.20;;;9.00;99.90;;;;;;5034784;28;20177;-48
2023/04/10 07:13:01;;;;;;;8.83;5.87;;;9.10;99.90;;;;;;5034575;28;20224;-47
2023/04/10 07:15:26;;;;;;;7.03;5.30;;;9.10;99.90;;;;;;5034639;28;20270;-47
2023/04/10 07:17:52;;;;;;;8.20;6.47;;;9.20;99.90;;;;;;5034962;28;20190;-46
2023/04/10 07:20:17;;;;;;;9.17;5.73;;;9.30;99.90;;;;;;5034613;28;20534;-48
2023/04/10 07:22:43;;;;;;;9.20;6.27;;;9.40;99.90;;;;;;5034790;28;20674;-48
2023/04/10 07:25:09;;;;;;;10.23;5.63;;;9.40;99.90;;;;;;5034455;28;20180;-47
2023/04/10 07:27:34;;;;;;;7.40;5.33;;;9.50;99.90;;;;;;5034511;28;20177;-48
2023/04/10 07:30:00;;;;;;;11.20;5.47;;;9.60;99.90;;;;;;5034439;28;20184;-47
2023/04/10 07:32:25;;;;;;;10.40;6.73;;;9.70;99.90;;;;;;5034287;28;20216;-46
2023/04/10 07:34:51;;;;;;;5.67;3.77;;;9.90;99.90;;;;;;5034400;28;20179;-47
2023/04/10 07:37:17;;;;;;;9.67;6.83;;;10.00;99.90;;;;;;5034221;28;20216;-47
2023/04/10 07:39:43;;;;;;;9.20;4.40;;;10.20;99.90;;;;;;5034166;28;20173;-47
2023/04/10 07:42:10;;;;;;;7.77;5.83;;;10.30;99.90;;;;;;5033938;28;20294;-46
2023/04/10 07:44:35;;;;;;;7.67;5.40;;;10.40;99.90;;;;;;5034910;28;20183;-48
2023/04/10 07:47:02;;;;;;;8.27;5.87;;;10.50;99.90;;;;;;5034429;28;20234;-48
2023/04/10 07:49:27;;;;;;;7.73;5.10;;;10.60;99.90;;;;;;5034022;28;20187;-48
2023/04/10 07:51:53;;;;;;;10.57;6.03;;;10.70;99.90;;;;;;5034152;28;20204;-48
2023/04/10 07:54:19;;;;;;;7.50;5.67;;;10.80;99.90;;;;;;5034199;28;20627;-47
2023/04/10 07:56:44;;;;;;;6.80;6.10;;;10.90;99.90;;;;;;5033875;28;20266;-47
2023/04/10 07:59:10;;;;;;;8.30;5.70;;;11.00;99.90;;;;;;5033792;28;20204;-47
2023/04/10 08:01:36;;;;;;;9.53;5.90;;;11.10;99.90;;;;;;5034027;28;20531;-49
2023/04/10 08:04:01;;;;;;;8.30;5.87;;;11.10;99.90;;;;;;5034013;28;20180;-47
2023/04/10 08:06:27;;;;;;;7.27;5.07;;;11.20;99.90;;;;;;5034019;28;20180;-48
2023/04/10 08:08:53;;;;;;;8.07;5.50;;;11.30;99.90;;;;;;5033791;28;20192;-47
2023/04/10 08:11:28;;;;;;;9.40;6.03;;;11.40;99.90;;;;;;5033628;28;20208;-49
2023/04/10 08:14:01;;;;;;;9.67;6.50;;;11.40;99.90;;;;;;5033735;28;20194;-48
2023/04/10 08:16:29;;;;;;;9.97;5.40;;;11.50;99.90;;;;;;5033502;28;20675;-47
2023/04/10 08:18:56;;;;;;;6.83;5.00;;;11.50;99.90;;;;;;5033924;28;20194;-47
2023/04/10 08:21:23;;;;;;;8.77;5.80;;;11.60;99.90;;;;;;5033786;28;20191;-46
2023/04/10 08:23:59;;;;;;;9.00;5.03;;;11.70;99.90;;;;;;5033749;28;20537;-47
2023/04/10 08:26:25;;;;;;;6.67;4.80;;;11.70;99.90;;;;;;5034238;28;20165;-47
2023/04/10 08:28:52;;;;;;;4.83;3.07;;;11.80;99.90;;;;;;5034562;28;20256;-48
2023/04/10 08:31:21;;;;;;;10.60;5.47;;;11.80;99.90;;;;;;5034750;28;20562;-47
2023/04/10 08:33:47;;;;;;;7.30;4.43;;;11.90;99.90;;;;;;5033533;28;20181;-48
2023/04/10 08:36:16;;;;;;;5.33;4.47;;;12.00;99.90;;;;;;5033446;28;20303;-49
2023/04/10 08:38:42;;;;;;;7.27;5.60;;;12.00;99.90;;;;;;5033639;28;20213;-48
2023/04/10 08:41:13;;;;;;;10.50;5.37;;;12.10;99.90;;;;;;5033237;28;20660;-48
2023/04/10 08:43:38;;;;;;;9.03;6.40;;;12.10;99.90;;;;;;5033273;28;20534;-49
2023/04/10 08:46:05;;;;;;;6.80;5.10;;;12.20;99.90;;;;;;5033244;28;20188;-48
2023/04/10 08:48:37;;;;;;;6.30;4.73;;;12.20;99.90;;;;;;5033536;28;20187;-45
2023/04/10 08:51:06;;;;;;;7.10;4.93;;;12.40;99.90;;;;;;5033183;28;20605;-45
2023/04/10 08:53:38;;;;;;;9.70;5.70;;;12.60;99.90;;;;;;5037263;28;20177;-45
2023/04/10 08:56:06;;;;;;;7.53;5.13;;;12.70;99.90;;;;;;5037321;28;20196;-45
2023/04/10 08:58:31;;;;;;;6.37;4.07;;;12.90;99.90;;;;;;5037474;28;20180;-46
2023/04/10 09:00:57;;;;;;;6.67;4.77;;;13.10;99.90;;;;;;5037113;28;20173;-46
2023/04/10 09:03:24;;;;;;;10.10;5.20;;;13.20;99.90;;;;;;5037162;28;20169;-46
2023/04/10 09:05:49;;;;;;;6.83;5.20;;;13.40;99.90;;;;;;5037362;28;20184;-47
2023/04/10 09:08:15;;;;;;;6.40;4.97;;;13.50;99.90;;;;;;5038289;28;20184;-45
2023/04/10 09:10:40;;;;;;;7.07;5.70;;;13.70;99.90;;;;;;5038834;28;20690;-45
2023/04/10 09:13:06;;;;;;;9.73;5.40;;;13.80;99.90;;;;;;5036871;28;20213;-46
2023/04/10 09:15:56;;;;;;;8.80;4.97;;;13.90;99.90;;;;;;5037472;28;20228;-46
2023/04/10 09:18:21;;;;;;;6.03;4.47;;;14.00;99.90;;;;;;5037255;28;20152;-43
2023/04/10 09:20:50;;;;;;;5.00;3.70;;;14.10;99.90;;;;;;5037186;28;20176;-49
2023/04/10 09:23:22;;;;;;;8.17;5.60;;;14.10;99.90;;;;;;5037208;28;20256;-46
2023/04/10 09:25:47;;;;;;;6.07;4.97;;;14.20;99.90;;;;;;5037256;28;20667;-44
2023/04/10 09:28:13;;;;;;;6.13;4.67;;;14.30;99.90;;;;;;5037065;28;20174;-46
2023/04/10 09:30:40;;;;;;;6.67;4.90;;;14.40;99.90;;;;;;5036683;28;20177;-46
2023/04/10 09:33:22;;;;;;;6.77;4.87;;;14.50;99.90;;;;;;5036615;28;20204;-45
2023/04/10 09:35:48;;;;;;;6.33;4.67;;;14.60;99.90;;;;;;5036873;28;20211;-46
2023/04/10 09:38:18;;;;;;;5.97;4.80;;;14.80;99.90;;;;;;5036817;28;20177;-45
2023/04/10 09:40:45;;;;;;;6.90;5.03;;;14.90;99.90;;;;;;5036671;28;20604;-45
2023/04/10 09:43:21;;;;;;;6.30;4.57;;;14.90;99.90;;;;;;5036443;28;20196;-45
2023/04/10 09:45:48;;;;;;;7.77;5.00;;;15.00;99.90;;;;;;5036620;28;20264;-46
2023/04/10 09:48:14;;;;;;;6.63;4.77;;;15.10;99.90;;;;;;5018687;28;20184;-45
2023/04/10 09:50:40;;;;;;;5.63;4.70;;;15.20;99.90;;;;;;5036343;28;20191;-45
2023/04/10 09:53:11;;;;;;;5.77;4.57;;;15.30;99.90;;;;;;5036409;28;20205;-46
2023/04/10 09:55:37;;;;;;;4.57;3.10;;;15.50;99.90;;;;;;5036515;28;20196;-45
2023/04/10 09:58:04;;;;;;;6.37;5.10;;;15.60;99.90;;;;;;5036469;28;20244;-42
2023/04/10 10:00:35;;;;;;;5.67;4.87;;;15.60;99.90;;;;;;5036375;28;20551;-44
2023/04/10 10:03:05;;;;;;;8.73;3.60;;;15.70;99.90;;;;;;5036009;28;20295;-45
2023/04/10 10:05:30;;;;;;;5.63;3.50;;;15.80;99.90;;;;;;5036530;28;20247;-46
2023/04/10 10:07:56;;;;;;;6.53;4.13;;;15.90;99.90;;;;;;5036019;28;20604;-46
2023/04/10 10:10:24;;;;;;;8.97;4.33;;;15.90;99.90;;;;;;5036150;28;20181;-44
2023/04/10 10:12:56;;;;;;;4.60;3.77;;;16.00;99.90;;;;;;5035765;28;20220;-44
2023/04/10 10:15:37;;;;;;;4.27;3.60;;;16.20;99.90;;;;;;5036005;28;20219;-47
2023/04/10 10:18:12;;;;;;;5.50;3.93;;;16.30;99.90;;;;;;5035912;28;20173;-45
2023/04/10 10:20:43;;;;;;;3.83;3.40;;;16.40;99.90;;;;;;5035755;28;20199;-44
2023/04/10 10:23:08;;;;;;;3.43;3.13;;;16.60;99.90;;;;;;5035987;28;20200;-44
2023/04/10 10:25:35;;;;;;;3.77;3.47;;;16.80;99.90;;;;;;5035900;28;20181;-46
2023/04/10 10:28:04;;;;;;;3.73;3.27;;;16.90;99.90;;;;;;5036148;28;20264;-47
2023/04/10 10:30:32;;;;;;;3.67;2.93;;;17.10;99.90;;;;;;5036016;28;20296;-46
2023/04/10 10:32:59;;;;;;;3.43;3.00;;;17.20;99.90;;;;;;5035991;28;20243;-46
2023/04/10 10:35:26;;;;;;;3.30;3.00;;;17.30;99.90;;;;;;5035792;28;20677;-45
2023/04/10 10:37:53;;;;;;;3.03;2.73;;;17.50;99.90;;;;;;5036096;28;20177;-47
2023/04/10 10:40:49;;;;;;;4.63;2.77;;;17.60;99.90;;;;;;5035618;28;20223;-46
2023/04/10 10:43:46;;;;;;;2.47;2.20;;;17.70;99.90;;;;;;5035387;28;20165;-45
2023/04/10 10:46:34;;;;;;;3.63;2.17;;;17.80;99.90;;;;;;5035587;28;20716;-46
2023/04/10 10:49:01;;;;;;;2.00;1.90;;;17.90;99.90;;;;;;5035569;28;20176;-45
2023/04/10 10:51:42;;;;;;;2.97;2.20;;;18.00;99.90;;;;;;5035167;28;20656;-47
2023/04/10 10:54:26;;;;;;;2.17;1.97;;;18.00;99.90;;;;;;5035147;28;20177;-45
2023/04/10 10:56:52;;;;;;;3.40;2.70;;;18.10;99.90;;;;;;5035018;28;20208;-46
2023/04/10 10:59:37;;;;;;;3.17;2.10;;;18.20;99.90;;;;;;5034997;28;20173;-45
2023/04/10 11:02:17;;;;;;;2.57;2.37;;;18.40;99.90;;;;;;5035021;28;20205;-44
2023/04/10 11:04:45;;;;;;;2.43;1.97;;;18.50;99.90;;;;;;5035279;28;20177;-45
2023/04/10 11:07:12;;;;;;;2.53;2.33;;;18.60;99.90;;;;;;5034930;28;20330;-46
2023/04/10 11:09:50;;;;;;;3.00;1.90;;;18.70;99.90;;;;;;5034980;28;20734;-47
2023/04/10 11:12:22;;;;;;;2.30;2.10;;;18.80;99.90;;;;;;5055642;23;20307;-51
2023/04/10 11:15:02;;;;;;;1.97;1.70;;;18.90;99.90;;;;;;5054666;28;20172;-50
2023/04/10 11:17:48;;;;;;;2.03;1.83;;;18.90;99.90;;;;;;5054749;28;20543;-51
2023/04/10 11:20:14;;;;;;;3.20;2.20;;;18.90;99.90;;;;;;5054590;28;20196;-50
2023/04/10 11:23:09;;;;;;;3.53;2.03;;;18.90;99.90;;;;;;5055361;28;20207;-51
2023/04/10 11:25:46;;;;;;;2.00;1.90;;;18.90;99.90;;;;;;5054919;28;20168;-50
2023/04/10 11:28:30;;;;;;;2.77;2.07;;;18.80;99.90;;;;;;5054358;28;20183;-49
2023/04/10 11:31:12;;;;;;;2.00;1.80;;;18.90;99.90;;;;;;5054328;28;20191;-50
2023/04/10 11:33:39;;;;;;;2.53;2.10;;;18.90;99.90;;;;;;5054665;28;20168;-51
2023/04/10 11:36:06;;;;;;;2.37;1.90;;;18.90;99.90;;;;;;5054464;28;20303;-49
2023/04/10 11:38:31;;;;;;;2.33;2.13;;;18.90;99.90;;;;;;5054493;28;20211;-50
2023/04/10 11:41:03;;;;;;;2.20;2.00;;;19.00;99.90;;;;;;5054815;28;20584;-49
2023/04/10 11:43:30;;;;;;;2.37;2.00;;;19.00;99.90;;;;;;5054165;28;20168;-52
2023/04/10 11:46:00;;;;;;;3.07;1.93;;;19.10;99.90;;;;;;5054402;28;20180;-51
2023/04/10 11:48:27;;;;;;;2.37;1.97;;;19.10;99.90;;;;;;5054067;28;20251;-49
2023/04/10 11:50:53;;;;;;;3.27;1.80;;;19.10;99.90;;;;;;5053958;28;20188;-51
2023/04/10 11:53:20;;;;;;;2.13;1.90;;;19.20;99.90;;;;;;5054437;28;20545;-50
2023/04/10 11:55:46;;;;;;;2.00;1.90;;;19.20;99.90;;;;;;5054081;28;20208;-52
2023/04/10 11:58:25;;;;;;;1.93;1.83;;;19.40;99.90;;;;;;5053840;28;20199;-51
2023/04/10 12:01:02;;;;;;;2.10;1.90;;;19.60;99.90;;;;;;5054043;28;20176;-49
2023/04/10 12:03:39;;;;;;;2.20;2.00;;;19.70;99.90;;;;;;5054125;28;20209;-50
2023/04/10 12:06:13;;;;;;;2.03;1.83;;;19.80;99.90;;;;;;5053864;28;20639;-50
2023/04/10 12:08:41;;;;;;;1.90;1.70;;;19.90;99.90;;;;;;5053977;28;20263;-49
2023/04/10 12:11:09;;;;;;;2.00;1.80;;;20.00;99.90;;;;;;5053834;28;20199;-51
2023/04/10 12:13:35;;;;;;;3.07;1.80;;;20.10;99.90;;;;;;5053605;28;20686;-51
2023/04/10 12:16:08;;;;;;;1.80;1.70;;;20.10;99.90;;;;;;5052257;28;20203;-51
2023/04/10 12:18:34;;;;;;;2.00;1.83;;;20.10;99.90;;;;;;5053786;28;20524;-50
2023/04/10 12:21:01;;;;;;;2.20;2.00;;;20.20;99.90;;;;;;5053395;28;20180;-50
2023/04/10 12:23:28;;;;;;;1.97;1.80;;;20.30;99.90;;;;;;5052242;28;20176;-49
2023/04/10 12:26:06;;;;;;;2.30;1.90;;;20.40;99.90;;;;;;5053631;28;20191;-49
2023/04/10 12:28:32;;;;;;;1.73;1.63;;;20.60;99.90;;;;;;5052159;28;20172;-50
2023/04/10 12:30:58;;;;;;;2.13;1.93;;;20.70;99.90;;;;;;5053571;28;20194;-50
2023/04/10 12:33:25;;;;;;;1.90;1.67;;;20.80;99.90;;;;;;5053324;28;20179;-51
2023/04/10 12:35:51;;;;;;;2.10;1.80;;;20.90;99.90;;;;;;5053549;28;20211;-51
2023/04/10 12:38:38;;;;;;;1.93;1.83;;;21.10;99.90;;;;;;5052354;28;20299;-50
2023/04/10 12:41:05;;;;;;;2.87;2.20;;;21.10;99.90;;;;;;5053120;28;20721;-50
2023/04/10 12:43:41;;;;;;;3.17;1.80;;;21.20;99.90;;;;;;5053521;28;20310;-49
2023/04/10 12:46:09;;;;;;;1.77;1.60;;;21.10;99.90;;;;;;5053266;28;20175;-49
2023/04/10 12:48:35;;;;;;;1.97;1.83;;;21.10;99.90;;;;;;5053464;28;20227;-48
2023/04/10 12:51:01;;;;;;;3.23;1.67;;;21.10;99.90;;;;;;5053430;28;20614;-50
2023/04/10 12:53:27;;;;;;;2.63;2.00;;;21.10;99.90;;;;;;5053071;28;20180;-52
2023/04/10 12:56:05;;;;;;;2.03;1.73;;;21.00;99.90;;;;;;5053283;28;20257;-52